Time;durP1;ratioP1;P1;durP2;ratioP2;P2;SDS_P1;SDS_P2;PMS_P1;PMS_P2;Temp;Humidity;BMP_temperature;BMP_pressure;BME280_temperature;BME280_humidity;BME280_pressure;Samples;Min_cycle;Max_cycle;Signal;HPM_P1;HPM_P2
2023/09/24 00:01:35;;;;;;;;;;;;;;;19.82;100.00;99881.09;6263041;28;20535;-73
2023/09/24 00:04:37;;;;;;;4.10;2.53;;;;;;;19.77;100.00;99896.66;6255811;28;19921;-73
2023/09/24 00:07:38;;;;;;;5.60;2.83;;;;;;;19.70;100.00;99914.94;6251935;28;20052;-73
2023/09/24 00:10:39;;;;;;;3.23;2.50;;;;;;;19.66;100.00;99907.44;6261951;28;20062;-75
2023/09/24 00:13:40;;;;;;;4.37;2.60;;;;;;;19.87;100.00;99909.75;6264823;28;20103;-73
2023/09/24 00:16:41;;;;;;;5.20;3.07;;;;;;;19.88;100.00;99908.78;6247290;28;20493;-73
2023/09/24 00:19:42;;;;;;;5.83;2.80;;;;;;;19.78;100.00;99895.66;6268273;28;20052;-73
2023/09/24 00:22:46;;;;;;;4.03;2.47;;;;;;;19.81;100.00;99881.25;6271758;28;20048;-75
2023/09/24 00:25:49;;;;;;;4.40;2.63;;;;;;;19.67;100.00;99887.94;6271046;28;20060;-75
2023/09/24 00:28:51;;;;;;;6.53;2.70;;;;;;;19.57;100.00;99887.22;6270959;28;20539;-75
2023/09/24 00:31:53;;;;;;;3.15;2.47;;;;;;;19.50;100.00;99890.50;6257486;28;20053;-74
2023/09/24 00:34:55;;;;;;;5.53;2.80;;;;;;;19.31;100.00;99894.19;6246308;28;20049;-74
2023/09/24 00:37:56;;;;;;;4.60;2.63;;;;;;;19.19;100.00;99891.91;6246146;28;20167;-74
2023/09/24 00:40:57;;;;;;;7.70;2.10;;;;;;;18.75;100.00;99894.47;6246108;28;20093;-74
2023/09/24 00:44:00;;;;;;;4.53;2.33;;;;;;;18.69;100.00;99895.88;6247472;28;20112;-74
2023/09/24 00:47:02;;;;;;;2.67;1.85;;;;;;;18.73;100.00;99910.47;6251063;28;20120;-74
2023/09/24 00:50:07;;;;;;;4.38;1.80;;;;;;;18.70;100.00;99924.81;6266413;28;20048;-74
2023/09/24 00:53:09;;;;;;;2.20;1.80;;;;;;;18.61;100.00;99933.63;6260430;28;20092;-74
2023/09/24 00:56:13;;;;;;;4.75;1.77;;;;;;;18.47;100.00;99932.34;6251312;28;20060;-74
2023/09/24 00:59:17;;;;;;;3.15;1.90;;;;;;;18.45;100.00;99944.84;6270117;28;20135;-73
2023/09/24 01:02:17;;;;;;;3.75;2.13;;;;;;;18.37;100.00;99939.47;6271408;28;20057;-73
2023/09/24 01:05:18;;;;;;;5.27;2.30;;;;;;;18.41;100.00;99934.72;6256192;28;20474;-73
2023/09/24 01:08:24;;;;;;;3.75;1.83;;;;;;;18.34;100.00;99942.41;6246598;28;20381;-73
2023/09/24 01:11:27;;;;;;;1.98;1.55;;;;;;;18.10;100.00;99930.56;6245249;28;20050;-72
2023/09/24 01:14:30;;;;;;;1.45;1.35;;;;;;;17.94;100.00;99935.63;6247800;28;20394;-73
2023/09/24 01:17:32;;;;;;;2.83;1.77;;;;;;;17.98;100.00;99915.88;6250834;28;20060;-73
2023/09/24 01:20:33;;;;;;;2.28;1.35;;;;;;;17.80;100.00;99910.47;6249725;28;20081;-73
2023/09/24 01:23:38;;;;;;;5.83;1.80;;;;;;;17.63;100.00;99898.88;6271804;28;20102;-73
2023/09/24 01:26:38;;;;;;;2.80;1.38;;;;;;;17.66;100.00;99914.41;6274418;28;20049;-73
2023/09/24 01:29:40;;;;;;;3.42;1.70;;;;;;;17.62;100.00;99917.47;6274222;28;20166;-73
2023/09/24 01:32:41;;;;;;;2.05;1.70;;;;;;;17.65;100.00;99915.38;6275499;28;20045;-72
2023/09/24 01:35:42;;;;;;;2.45;1.90;;;;;;;17.63;100.00;99925.25;6274177;28;20049;-74
2023/09/24 01:38:43;;;;;;;1.95;1.70;;;;;;;17.63;100.00;99937.63;6275318;28;20095;-75
2023/09/24 01:41:45;;;;;;;1.77;1.57;;;;;;;17.79;100.00;99937.84;6274198;28;20057;-75
2023/09/24 01:44:47;;;;;;;2.85;1.77;;;;;;;17.62;100.00;99922.75;6274051;28;20049;-74
2023/09/24 01:47:49;;;;;;;1.92;1.73;;;;;;;17.45;100.00;99925.13;6275066;28;20132;-74
2023/09/24 01:50:52;;;;;;;2.33;1.90;;;;;;;17.69;100.00;99926.50;6274090;28;20052;-74
2023/09/24 01:53:53;;;;;;;2.83;2.10;;;;;;;17.59;100.00;99926.50;6274034;28;20095;-73
2023/09/24 01:56:57;;;;;;;3.08;2.13;;;;;;;17.51;100.00;99923.75;6274874;28;20083;-72
2023/09/24 02:00:23;;;;;;;2.08;1.88;;;;;;;17.65;100.00;99915.38;6252319;28;20049;-75
2023/09/24 02:03:20;;;;;;;2.67;1.83;;;;;;;17.54;100.00;99907.63;6250001;28;20088;-74
2023/09/24 02:06:23;;;;;;;3.27;2.40;;;;;;;17.51;100.00;99897.38;6249118;28;20080;-74
2023/09/24 02:09:24;;;;;;;2.22;2.03;;;;;;;17.47;100.00;99882.78;6249919;28;20285;-74
2023/09/24 02:12:25;;;;;;;2.83;2.35;;;;;;;17.42;100.00;99870.03;6248578;28;20054;-74
2023/09/24 02:15:29;;;;;;;3.10;2.28;;;;;;;17.41;100.00;99857.00;6249539;28;20081;-74
2023/09/24 02:18:32;;;;;;;2.38;1.92;;;;;;;17.51;100.00;99858.63;6247071;28;20045;-74
2023/09/24 02:21:33;;;;;;;5.13;1.88;;;;;;;17.58;100.00;99858.88;6247956;28;20182;-74
2023/09/24 02:24:35;;;;;;;3.78;2.00;;;;;;;17.47;100.00;99857.25;6258890;28;20053;-73
2023/09/24 02:27:38;;;;;;;3.92;2.28;;;;;;;17.43;100.00;99879.59;6272884;28;20052;-72
2023/09/24 02:30:38;;;;;;;2.50;2.05;;;;;;;17.28;100.00;99875.75;6273632;28;20052;-72
2023/09/24 02:33:44;;;;;;;2.92;2.05;;;;;;;17.35;100.00;99871.56;6272807;28;20130;-72
2023/09/24 02:36:47;;;;;;;4.20;2.38;;;;;;;17.35;100.00;99871.56;6268905;28;20080;-75
2023/09/24 02:39:48;;;;;;;2.85;2.13;;;;;;;17.21;100.00;99869.38;6268047;28;20052;-75
2023/09/24 02:42:52;;;;;;;2.90;2.00;;;;;;;17.39;100.00;99867.69;6273091;28;20075;-74
2023/09/24 02:45:56;;;;;;;4.32;2.15;;;;;;;17.45;100.00;99875.03;6273642;28;20289;-74
2023/09/24 02:48:59;;;;;;;5.53;1.73;;;;;;;17.50;100.00;99866.66;6273578;28;20064;-76
2023/09/24 02:52:03;;;;;;;2.20;1.70;;;;;;;17.35;100.00;99866.28;6254878;28;20079;-76
2023/09/24 02:55:04;;;;;;;5.15;2.00;;;;;;;17.55;100.00;99853.91;6273489;28;20443;-76
2023/09/24 02:58:08;;;;;;;5.93;2.00;;;;;;;17.42;100.00;99840.19;6272136;28;20130;-74
2023/09/24 03:01:15;;;;;;;3.65;1.60;;;;;;;17.45;100.00;99830.19;6272993;28;20064;-74
2023/09/24 03:04:16;;;;;;;2.35;1.50;;;;;;;17.42;100.00;99811.16;6271896;28;20094;-74
2023/09/24 03:07:20;;;;;;;4.63;1.50;;;;;;;17.09;100.00;99805.41;6271692;28;20048;-72
2023/09/24 03:10:21;;;;;;;4.30;1.52;;;;;;;17.12;100.00;99823.59;6271813;28;20052;-72
2023/09/24 03:13:22;;;;;;;1.52;1.40;;;;;;;16.97;100.00;99840.84;6271776;28;20476;-72
2023/09/24 03:16:23;;;;;;;1.70;1.17;;;;;;;17.07;100.00;99863.56;6254714;28;20107;-72
2023/09/24 03:19:26;;;;;;;1.90;1.50;;;;;;;17.08;100.00;99882.84;6247108;28;20065;-72
2023/09/24 03:22:29;;;;;;;3.22;1.48;;;;;;;17.18;100.00;99882.84;6247803;28;20063;-72
2023/09/24 03:25:31;;;;;;;1.55;1.20;;;;;;;17.10;100.00;99873.81;6248104;28;20451;-72
2023/09/24 03:28:32;;;;;;;1.50;1.40;;;;;;;16.96;100.00;99862.88;6247158;28;20137;-74
2023/09/24 03:31:33;;;;;;;2.25;1.30;;;;;;;16.69;100.00;99857.28;6247170;28;20058;-72
2023/09/24 03:34:34;;;;;;;1.83;1.30;;;;;;;16.65;100.00;99840.09;6246743;28;20104;-72
2023/09/24 03:37:40;;;;;;;4.95;1.65;;;;;;;16.66;100.00;99836.50;6246387;28;20056;-72
2023/09/24 03:40:41;;;;;;;2.17;1.17;;;;;;;16.57;100.00;99832.03;6260332;28;20519;-72
2023/09/24 03:43:42;;;;;;;2.03;1.30;;;;;;;16.61;100.00;99835.25;6271129;28;20057;-72
2023/09/24 03:46:43;;;;;;;1.48;1.10;;;;;;;16.64;100.00;99840.25;6270659;28;20044;-74
2023/09/24 03:49:44;;;;;;;1.95;1.27;;;;;;;16.61;100.00;99857.13;6271395;28;20077;-74
2023/09/24 03:52:50;;;;;;;1.33;1.23;;;;;;;16.40;100.00;99880.13;6271358;28;20084;-74
2023/09/24 03:55:51;;;;;;;1.63;1.40;;;;;;;16.54;100.00;99885.00;6271227;28;20057;-74
2023/09/24 03:58:52;;;;;;;1.38;1.08;;;;;;;16.59;100.00;99884.59;6248379;28;20045;-74
2023/09/24 04:01:53;;;;;;;1.17;1.08;;;;;;;16.42;100.00;99820.25;6257781;28;20073;-71
2023/09/24 04:04:55;;;;;;;2.75;1.42;;;;;;;16.31;100.00;99837.03;6258879;28;20077;-72
2023/09/24 04:07:56;;;;;;;1.77;1.38;;;;;;;16.27;100.00;99868.03;6246095;28;20136;-73
2023/09/24 04:10:57;;;;;;;2.42;1.60;;;;;;;16.30;100.00;99877.47;6262496;28;20125;-74
2023/09/24 04:13:57;;;;;;;2.13;1.38;;;;;;;16.18;100.00;99886.44;6263769;28;20068;-73
2023/09/24 04:16:58;;;;;;;2.38;1.45;;;;;;;16.22;100.00;99893.09;6262587;28;20058;-74
2023/09/24 04:19:59;;;;;;;2.30;1.58;;;;;;;16.15;100.00;99894.59;6246296;28;20069;-73
2023/09/24 04:23:00;;;;;;;1.83;1.38;;;;;;;15.91;100.00;99887.84;6245740;28;20062;-73
2023/09/24 04:26:03;;;;;;;3.88;1.25;;;;;;;16.10;100.00;99894.97;6246075;28;20053;-73
2023/09/24 04:29:06;;;;;;;1.65;1.20;;;;;;;16.28;100.00;99896.00;6256836;28;20056;-73
2023/09/24 04:32:08;;;;;;;1.70;1.30;;;;;;;16.20;100.00;99897.66;6256347;28;20053;-73
2023/09/24 04:35:10;;;;;;;3.50;1.45;;;;;;;16.24;100.00;99893.78;6258105;28;20057;-73
2023/09/24 04:38:11;;;;;;;;;;;;;;;16.26;100.00;99905.03;6245681;28;20547;-72
2023/09/24 04:41:16;;;;;;;1.17;0.93;;;;;;;16.44;100.00;99890.25;6245533;28;19921;-73
2023/09/24 04:44:17;;;;;;;4.60;1.40;;;;;;;16.14;100.00;99899.00;6262164;28;20053;-72
2023/09/24 04:47:17;;;;;;;2.08;1.20;;;;;;;16.17;100.00;99898.75;6270875;28;20087;-74
2023/09/24 04:50:18;;;;;;;2.78;1.10;;;;;;;16.26;100.00;99905.84;6272747;28;20052;-74
2023/09/24 04:53:19;;;;;;;8.57;1.10;;;;;;;16.41;100.00;99905.47;6251606;28;20054;-74
2023/09/24 04:56:20;;;;;;;2.38;1.35;;;;;;;16.37;100.00;99898.81;6264047;28;20416;-74
2023/09/24 04:59:23;;;;;;;2.03;1.23;;;;;;;16.38;100.00;99911.03;6275702;28;20053;-74
2023/09/24 05:02:24;;;;;;;4.22;1.50;;;;;;;16.43;100.00;99916.69;6269689;28;20519;-74
2023/09/24 05:05:27;;;;;;;2.00;1.13;;;;;;;16.49;100.00;99927.56;6275196;28;20083;-77
2023/09/24 05:08:31;;;;;;;3.60;1.23;;;;;;;16.44;100.00;99932.38;6276675;28;20132;-74
2023/09/24 05:11:32;;;;;;;1.42;1.17;;;;;;;16.50;100.00;99928.38;6276275;28;20067;-74
2023/09/24 05:14:33;;;;;;;1.25;0.98;;;;;;;16.58;100.00;99935.63;6274795;28;20049;-74
2023/09/24 05:17:34;;;;;;;1.10;1.00;;;;;;;16.55;100.00;99928.78;6273569;28;20558;-73
2023/09/24 05:20:37;;;;;;;2.55;1.38;;;;;;;16.60;100.00;99925.78;6252310;28;20056;-73
2023/09/24 05:23:41;;;;;;;1.67;1.27;;;;;;;16.61;100.00;99944.06;6271195;28;20554;-74
2023/09/24 05:26:41;;;;;;;1.02;0.93;;;;;;;16.73;100.00;99944.78;6273419;28;20045;-75
2023/09/24 05:29:46;;;;;;;1.27;1.17;;;;;;;16.73;100.00;99936.88;6273435;28;20055;-74
2023/09/24 05:32:47;;;;;;;2.22;1.23;;;;;;;16.81;100.00;99934.44;6274704;28;20060;-74
2023/09/24 05:35:54;;;;;;;1.48;1.27;;;;;;;16.91;100.00;99927.38;6255164;28;20425;-74
2023/09/24 05:38:55;;;;;;;1.67;1.50;;;;;;;16.96;100.00;99932.22;6250635;28;20051;-74
2023/09/24 05:41:59;;;;;;;2.08;1.38;;;;;;;16.75;100.00;99920.94;6250319;28;20460;-74
2023/09/24 05:45:00;;;;;;;1.63;1.38;;;;;;;16.94;100.00;99928.06;6254883;28;20045;-72
2023/09/24 05:48:01;;;;;;;2.42;1.67;;;;;;;16.81;100.00;99942.34;6252952;28;20068;-72
2023/09/24 05:51:03;;;;;;;3.10;1.50;;;;;;;16.90;100.00;99930.13;6248275;28;20106;-72
2023/09/24 05:54:04;;;;;;;3.53;1.80;;;;;;;17.07;100.00;99939.16;6251707;28;20052;-74
2023/09/24 05:57:10;;;;;;;3.58;1.45;;;;;;;17.10;100.00;99945.00;6254157;28;20539;-72
2023/09/24 06:00:12;;;;;;;2.15;1.58;;;;;;;17.16;100.00;99926.97;6273606;28;20060;-72
2023/09/24 06:03:14;;;;;;;2.17;1.60;;;;;;;17.14;100.00;99921.84;6254220;28;20436;-72
2023/09/24 06:06:15;;;;;;;;;;;;;;;17.43;100.00;99921.81;6256530;28;20211;-74
2023/09/24 06:09:17;;;;;;;6.07;1.75;;;;;;;17.47;100.00;99938.19;6254301;28;19967;-74
2023/09/24 06:12:18;;;;;;;3.20;1.55;;;;;;;17.68;100.00;99952.03;6252588;28;20049;-74
2023/09/24 06:15:22;;;;;;;1.50;1.40;;;;;;;17.56;100.00;99944.41;6255323;28;20060;-74
2023/09/24 06:18:23;;;;;;;1.73;1.50;;;;;;;17.71;100.00;99951.75;6253187;28;20780;-74
2023/09/24 06:21:24;;;;;;;3.15;1.67;;;;;;;17.56;100.00;99952.31;6252606;28;20144;-74
2023/09/24 06:24:26;;;;;;;2.92;1.80;;;;;;;17.53;100.00;99942.91;6253315;28;20390;-76
2023/09/24 06:27:27;;;;;;;2.00;1.80;;;;;;;17.63;100.00;99954.28;6253238;28;20567;-76
2023/09/24 06:30:28;;;;;;;2.55;1.88;;;;;;;17.66;100.00;99961.06;6254342;28;20143;-76
2023/09/24 06:33:29;;;;;;;3.90;1.73;;;;;;;17.61;100.00;99971.22;6253724;28;20053;-74
2023/09/24 06:36:31;;;;;;;2.45;1.63;;;;;;;17.51;100.00;99973.84;6245924;28;20115;-72
2023/09/24 06:39:33;;;;;;;3.45;1.60;;;;;;;17.93;100.00;99981.44;6249674;28;20466;-74
2023/09/24 06:42:36;;;;;;;2.22;1.67;;;;;;;17.95;100.00;99997.16;6255174;28;20124;-74
2023/09/24 06:45:37;;;;;;;5.65;2.13;;;;;;;17.89;100.00;100009.97;6259119;28;20453;-72
2023/09/24 06:48:40;;;;;;;1.77;1.67;;;;;;;17.85;100.00;100008.56;6270547;28;20045;-72
2023/09/24 06:51:41;;;;;;;2.38;1.70;;;;;;;17.98;100.00;100010.91;6252178;28;20100;-74
2023/09/24 06:54:42;;;;;;;1.80;1.60;;;;;;;17.95;100.00;100011.19;6255231;28;20049;-74
2023/09/24 06:57:45;;;;;;;2.03;1.63;;;;;;;17.94;100.00;100004.25;6272741;28;20187;-74
2023/09/24 07:00:52;;;;;;;3.22;1.85;;;;;;;18.00;100.00;100001.03;6258411;28;20051;-75
2023/09/24 07:03:56;;;;;;;3.28;1.80;;;;;;;18.32;100.00;100011.22;6250995;28;20451;-74
2023/09/24 07:07:03;;;;;;;3.50;1.80;;;;;;;18.39;100.00;100029.13;6254747;28;20053;-75
2023/09/24 07:10:05;;;;;;;5.85;1.90;;;;;;;18.24;100.00;100023.47;6255233;28;20511;-75
2023/09/24 07:13:06;;;;;;;3.55;1.98;;;;;;;18.43;100.00;100028.69;6250628;28;20051;-74
2023/09/24 07:16:07;;;;;;;2.35;1.80;;;;;;;18.60;100.00;100021.81;6258531;28;20057;-74
2023/09/24 07:19:10;;;;;;;2.42;1.50;;;;;;;18.67;99.01;100022.06;6246132;28;20080;-75
2023/09/24 07:22:11;;;;;;;5.22;1.77;;;;;;;18.76;99.19;100034.41;6254803;28;20197;-74
2023/09/24 07:25:14;;;;;;;2.35;1.65;;;;;;;18.87;100.00;100052.72;6270707;28;20053;-74
2023/09/24 07:28:15;;;;;;;3.88;1.50;;;;;;;18.75;98.27;100045.94;6270442;28;20413;-74
2023/09/24 07:31:22;;;;;;;3.77;1.43;;;;;;;18.86;97.78;100047.56;6270536;28;20053;-74
2023/09/24 07:34:26;;;;;;;3.58;1.50;;;;;;;18.64;99.92;100048.78;6248196;28;20052;-75
2023/09/24 07:37:29;;;;;;;3.28;1.50;;;;;;;18.53;98.85;100063.00;6268886;28;20052;-75
2023/09/24 07:40:30;;;;;;;1.65;1.38;;;;;;;18.60;97.07;100048.25;6270574;28;20056;-74
2023/09/24 07:43:30;;;;;;;2.20;1.40;;;;;;;18.84;96.20;100057.47;6258177;28;20049;-74
2023/09/24 07:46:31;;;;;;;3.83;1.60;;;;;;;18.91;95.45;100045.34;6245632;28;20099;-74
2023/09/24 07:49:35;;;;;;;2.47;1.48;;;;;;;18.98;95.18;100054.31;6250848;28;20136;-74
2023/09/24 07:52:36;;;;;;;2.38;1.85;;;;;;;19.15;96.57;100054.50;6265494;28;20421;-72
2023/09/24 07:55:37;;;;;;;4.68;1.52;;;;;;;18.98;96.16;100056.16;6245409;28;20049;-72
2023/09/24 07:58:41;;;;;;;1.92;1.17;;;;;;;19.01;94.42;100069.91;6245432;28;20053;-72
2023/09/24 08:01:42;;;;;;;1.20;1.10;;;;;;;19.11;93.20;100064.56;6245564;28;20049;-72
2023/09/24 08:04:43;;;;;;;1.75;1.10;;;;;;;19.06;92.22;100067.63;6245826;28;20561;-72
2023/09/24 08:07:44;;;;;;;1.10;1.00;;;;;;;19.13;91.98;100071.38;6249953;28;20072;-72
2023/09/24 08:10:45;;;;;;;1.63;1.00;;;;;;;19.39;92.05;100069.81;6246260;28;20497;-72
2023/09/24 08:13:46;;;;;;;1.98;1.10;;;;;;;19.41;92.71;100066.03;6256897;28;20124;-72
2023/09/24 08:16:48;;;;;;;2.72;1.55;;;;;;;19.32;90.43;100072.22;6267395;28;20051;-72
2023/09/24 08:19:49;;;;;;;2.30;1.33;;;;;;;19.35;90.93;100065.81;6271115;28;20560;-72
2023/09/24 08:22:52;;;;;;;2.33;1.20;;;;;;;19.48;90.10;100079.50;6271413;28;20052;-72
2023/09/24 08:25:53;;;;;;;2.60;1.13;;;;;;;19.35;90.19;100090.44;6259780;28;20110;-72
2023/09/24 08:28:54;;;;;;;1.23;1.00;;;;;;;19.60;88.22;100102.13;6253482;28;20053;-72
2023/09/24 08:31:55;;;;;;;1.55;1.35;;;;;;;19.75;87.53;100091.88;6274293;28;20471;-72
2023/09/24 08:34:58;;;;;;;1.45;1.10;;;;;;;19.90;85.96;100103.56;6272705;28;20556;-72
2023/09/24 08:37:59;;;;;;;1.33;1.10;;;;;;;20.01;85.23;100102.47;6262340;28;20057;-72
2023/09/24 08:41:00;;;;;;;1.47;1.33;;;;;;;20.10;86.63;100108.69;6273135;28;20071;-72
2023/09/24 08:44:08;;;;;;;1.47;1.07;;;;;;;20.26;87.84;100110.63;6275008;28;20476;-72
2023/09/24 08:47:09;;;;;;;12.57;1.20;;;;;;;20.36;85.04;100115.81;6275623;28;20040;-73
2023/09/24 08:50:11;;;;;;;2.60;1.40;;;;;;;20.43;84.92;100111.59;6252756;28;20045;-72
2023/09/24 08:53:15;;;;;;;1.10;1.00;;;;;;;20.11;84.48;100103.22;6250843;28;20060;-72
2023/09/24 08:56:20;;;;;;;1.30;1.05;;;;;;;19.79;87.88;100097.66;6272124;28;20048;-72
2023/09/24 08:59:22;;;;;;;2.35;0.85;;;;;;;19.64;88.22;100099.97;6253788;28;20049;-72
2023/09/24 09:02:22;;;;;;;2.50;0.95;;;;;;;19.32;87.38;100093.41;6250188;28;20060;-71
2023/09/24 09:05:25;;;;;;;5.80;1.20;;;;;;;19.71;86.74;100101.91;6253223;28;20076;-74
2023/09/24 09:08:26;;;;;;;1.52;0.90;;;;;;;19.82;85.89;100113.25;6249897;28;20465;-71
2023/09/24 09:11:59;;;;;;;4.23;1.30;;;;;;;19.95;86.89;100126.94;6270380;28;20053;-71
2023/09/24 09:15:15;;;;;;;2.35;0.85;;;;;;;19.57;85.34;100136.00;6251701;28;20056;-72
2023/09/24 09:18:25;;;;;;;1.30;0.82;;;;;;;19.52;85.52;100120.56;6249916;28;20452;-71
2023/09/24 09:21:27;;;;;;;5.07;0.90;;;;;;;19.57;85.33;100123.56;6256951;28;20059;-72
2023/09/24 09:24:28;;;;;;;5.97;0.80;;;;;;;19.59;84.81;100112.84;6267687;28;20147;-72
2023/09/24 09:27:33;;;;;;;2.88;0.63;;;;;;;19.55;85.19;100128.19;6273662;28;20051;-72
2023/09/24 09:30:34;;;;;;;4.72;0.80;;;;;;;19.33;85.40;100119.72;6259444;28;20052;-71
2023/09/24 09:33:38;;;;;;;1.70;0.83;;;;;;;19.28;86.57;100131.72;6254725;28;20050;-71
2023/09/24 09:36:39;;;;;;;1.00;0.90;;;;;;;19.06;86.43;100135.56;6263548;28;20048;-71
2023/09/24 09:39:41;;;;;;;3.87;0.63;;;;;;;19.05;85.83;100126.81;6271774;28;20475;-72
2023/09/24 09:42:42;;;;;;;1.17;0.63;;;;;;;19.25;85.95;100126.69;6273373;28;20053;-72
2023/09/24 09:45:44;;;;;;;0.73;0.43;;;;;;;19.35;85.52;100114.25;6274161;28;20078;-71
2023/09/24 09:48:55;;;;;;;0.73;0.52;;;;;;;19.09;88.46;100095.63;6272751;28;20135;-72
2023/09/24 09:52:00;;;;;;;1.42;0.80;;;;;;;19.09;92.58;100107.03;6272895;28;20559;-72
2023/09/24 09:55:04;;;;;;;4.15;0.60;;;;;;;19.14;91.91;100117.16;6273091;28;20052;-72
2023/09/24 09:58:08;;;;;;;0.77;0.65;;;;;;;18.75;95.09;100079.47;6273956;28;20041;-71
2023/09/24 10:01:12;;;;;;;1.77;0.82;;;;;;;18.80;95.93;100046.38;6272267;28;20119;-72
2023/09/24 10:04:16;;;;;;;0.75;0.70;;;;;;;19.07;96.29;100084.38;6272684;28;20409;-72
2023/09/24 10:07:17;;;;;;;4.72;0.70;;;;;;;19.31;95.63;100131.41;6273409;28;20055;-72
2023/09/24 10:10:34;;;;;;;0.80;0.80;;;;;;;19.71;93.32;100143.44;6264445;28;20050;-71
2023/09/24 10:13:46;;;;;;;1.58;0.80;;;;;;;19.95;91.32;100136.69;6260741;28;20520;-72
2023/09/24 10:16:47;;;;;;;;;;;;;;;19.73;88.32;100152.06;6271148;28;20051;-72
2023/09/24 10:19:53;;;;;;;1.25;0.50;;;;;;;20.02;88.29;100161.59;6273464;28;19956;-72
2023/09/24 10:22:54;;;;;;;1.67;0.70;;;;;;;19.62;88.08;100166.31;6272208;28;20045;-72
2023/09/24 10:26:04;;;;;;;0.50;0.50;;;;;;;19.39;87.29;100162.41;6272147;28;20053;-73
2023/09/24 10:29:05;;;;;;;2.17;0.88;;;;;;;19.52;89.28;100173.50;6273195;28;20041;-71
2023/09/24 10:32:06;;;;;;;1.08;0.60;;;;;;;19.49;88.78;100171.13;6270663;28;20064;-72
2023/09/24 10:35:09;;;;;;;1.20;0.45;;;;;;;19.39;87.50;100189.69;6247560;28;20053;-71
2023/09/24 10:38:10;;;;;;;0.60;0.45;;;;;;;19.22;88.46;100209.81;6251173;28;20094;-71
2023/09/24 10:41:11;;;;;;;0.70;0.57;;;;;;;19.04;89.04;100243.31;6256372;28;20088;-71
2023/09/24 10:44:25;;;;;;;2.28;0.80;;;;;;;19.32;90.05;100350.00;6246964;28;20053;-72
2023/09/24 10:47:30;;;;;;;2.83;0.55;;;;;;;19.39;88.01;100342.31;6258101;28;20049;-72
2023/09/24 10:50:31;;;;;;;4.50;0.85;;;;;;;19.03;92.80;100197.53;6265773;28;20053;-73
2023/09/24 10:53:34;;;;;;;8.23;0.73;;;;;;;18.00;100.00;100254.47;6271334;28;20057;-75
2023/09/24 10:56:35;;;;;;;0.80;0.70;;;;;;;17.86;100.00;100249.59;6263051;28;20293;-74
2023/09/24 10:59:39;;;;;;;4.18;0.70;;;;;;;17.74;100.00;100217.16;6268166;28;20052;-76
2023/09/24 11:02:39;;;;;;;0.75;0.70;;;;;;;18.19;100.00;100208.75;6268227;28;20147;-73
2023/09/24 11:05:48;;;;;;;1.85;1.00;;;;;;;18.55;100.00;100214.28;6270844;28;20124;-73
2023/09/24 11:08:49;;;;;;;1.27;0.80;;;;;;;18.42;100.00;100217.22;6271676;28;20110;-73
2023/09/24 11:11:50;;;;;;;5.70;0.88;;;;;;;18.27;100.00;100208.91;6263714;28;20076;-73
2023/09/24 11:14:58;;;;;;;0.60;0.60;;;;;;;18.05;100.00;100232.94;6257236;28;20370;-73
2023/09/24 11:18:02;;;;;;;0.98;0.77;;;;;;;18.34;100.00;100232.94;6271382;28;20064;-73
2023/09/24 11:21:04;;;;;;;9.02;1.05;;;;;;;18.50;100.00;100195.41;6271227;28;20049;-75
2023/09/24 11:24:25;;;;;;;0.70;0.60;;;;;;;18.59;100.00;100152.25;6271707;28;20049;-73
2023/09/24 11:27:26;;;;;;;1.27;0.80;;;;;;;18.57;100.00;100162.13;6271349;28;20049;-72
2023/09/24 11:30:49;;;;;;;2.22;1.20;;;;;;;18.81;100.00;100155.56;6271306;28;20512;-72
2023/09/24 11:33:59;;;;;;;0.70;0.70;;;;;;;18.93;100.00;100151.78;6271368;28;20060;-72
2023/09/24 11:37:06;;;;;;;2.30;1.05;;;;;;;18.55;100.00;100160.63;6264281;28;20056;-72
2023/09/24 11:40:21;;;;;;;0.75;0.75;;;;;;;18.89;100.00;100147.75;6248018;28;20504;-72
2023/09/24 11:43:23;;;;;;;0.93;0.70;;;;;;;18.72;100.00;100138.75;6267943;28;20460;-72
2023/09/24 11:46:29;;;;;;;2.30;0.80;;;;;;;18.52;100.00;100130.84;6270983;28;20099;-72
2023/09/24 11:49:30;;;;;;;1.17;0.70;;;;;;;18.64;100.00;100131.53;6270656;28;20061;-72
2023/09/24 11:52:34;;;;;;;0.70;0.70;;;;;;;18.72;100.00;100121.06;6271797;28;20063;-72
2023/09/24 11:55:37;;;;;;;0.93;0.70;;;;;;;18.52;100.00;100128.22;6270787;28;20057;-73
2023/09/24 11:58:38;;;;;;;0.70;0.68;;;;;;;18.49;100.00;100133.81;6270791;28;20053;-73
2023/09/24 12:01:41;;;;;;;1.05;0.70;;;;;;;18.59;100.00;100154.88;6267705;28;20122;-72
2023/09/24 12:04:42;;;;;;;0.70;0.70;;;;;;;18.69;100.00;100146.94;6263005;28;20408;-72
2023/09/24 12:07:43;;;;;;;3.90;1.05;;;;;;;18.77;99.95;100140.94;6270627;28;20080;-74
2023/09/24 12:10:50;;;;;;;1.00;0.85;;;;;;;18.84;100.00;100153.47;6272713;28;20060;-74
2023/09/24 12:13:51;;;;;;;0.70;0.70;;;;;;;18.93;99.75;100157.88;6272384;28;20049;-74
2023/09/24 12:16:54;;;;;;;4.10;0.83;;;;;;;18.90;95.00;100154.69;6270827;28;20095;-72
2023/09/24 12:19:56;;;;;;;1.73;0.77;;;;;;;19.01;92.89;100157.16;6262219;28;20174;-72
2023/09/24 12:23:01;;;;;;;0.63;0.63;;;;;;;18.97;92.86;100157.63;6247553;28;20049;-72
2023/09/24 12:26:02;;;;;;;1.08;0.50;;;;;;;18.85;91.93;100168.34;6276871;28;20054;-72
2023/09/24 12:29:03;;;;;;;1.15;0.77;;;;;;;18.95;91.58;100151.63;6264223;28;20052;-72
2023/09/24 12:32:07;;;;;;;1.77;0.70;;;;;;;19.17;92.61;100150.41;6271745;28;20064;-72
2023/09/24 12:35:13;;;;;;;1.02;0.70;;;;;;;19.23;97.41;100144.53;6270382;28;20057;-72
2023/09/24 12:38:14;;;;;;;0.95;0.80;;;;;;;19.21;95.14;100143.84;6268224;28;20045;-71
2023/09/24 12:41:15;;;;;;;2.80;0.90;;;;;;;19.41;97.93;100149.88;6270389;28;20092;-71
2023/09/24 12:44:17;;;;;;;0.67;0.67;;;;;;;19.29;97.35;100143.94;6270700;28;20049;-72
2023/09/24 12:47:18;;;;;;;1.45;0.70;;;;;;;19.22;95.99;100146.34;6254420;28;20053;-71
2023/09/24 12:50:21;;;;;;;0.77;0.60;;;;;;;19.12;95.48;100132.34;6254538;28;20053;-72
2023/09/24 12:53:22;;;;;;;1.90;0.82;;;;;;;18.95;94.66;100144.53;6245142;28;20081;-71
2023/09/24 12:56:25;;;;;;;0.57;0.57;;;;;;;18.98;96.58;100141.56;6260122;28;20060;-71
2023/09/24 12:59:26;;;;;;;1.95;0.80;;;;;;;18.84;95.65;100134.13;6255948;28;20099;-71
2023/09/24 13:02:27;;;;;;;2.22;0.90;;;;;;;18.86;96.16;100129.53;6260355;28;20484;-72
2023/09/24 13:05:28;;;;;;;1.40;0.80;;;;;;;18.85;94.64;100128.69;6270109;28;20436;-72
2023/09/24 13:08:29;;;;;;;1.30;0.57;;;;;;;18.70;94.32;100123.03;6269806;28;20110;-71
2023/09/24 13:11:30;;;;;;;3.85;0.75;;;;;;;18.93;95.78;100130.63;6253537;28;20465;-72
2023/09/24 13:14:31;;;;;;;1.97;0.80;;;;;;;19.03;94.38;100134.06;6251094;28;20084;-74
2023/09/24 13:17:34;;;;;;;2.90;0.90;;;;;;;19.12;93.25;100125.22;6269520;28;20098;-72
2023/09/24 13:20:37;;;;;;;1.85;0.95;;;;;;;19.22;94.31;100132.31;6273647;28;20053;-71
2023/09/24 13:23:38;;;;;;;0.80;0.73;;;;;;;19.72;92.69;100137.16;6260589;28;20049;-71
2023/09/24 13:26:39;;;;;;;3.43;0.80;;;;;;;19.44;90.87;100133.72;6248848;28;20046;-71
2023/09/24 13:29:45;;;;;;;1.67;0.70;;;;;;;19.36;91.79;100138.91;6257250;28;20053;-73
2023/09/24 13:32:50;;;;;;;0.85;0.52;;;;;;;19.20;93.66;100148.31;6249872;28;20058;-72
2023/09/24 13:35:51;;;;;;;0.88;0.80;;;;;;;18.98;92.17;100152.16;6252003;28;20056;-71
2023/09/24 13:38:52;;;;;;;1.00;0.70;;;;;;;18.95;93.94;100159.56;6249674;28;20479;-72
2023/09/24 13:41:56;;;;;;;1.42;0.73;;;;;;;18.98;93.33;100154.81;6248467;28;20425;-71
2023/09/24 13:44:56;;;;;;;0.98;0.80;;;;;;;19.18;94.44;100144.97;6259516;28;20048;-74
2023/09/24 13:47:59;;;;;;;1.88;0.80;;;;;;;19.11;92.84;100146.56;6273110;28;20056;-71
2023/09/24 13:51:01;;;;;;;2.17;0.82;;;;;;;19.14;92.27;100143.59;6274327;28;20075;-71
2023/09/24 13:54:02;;;;;;;0.65;0.60;;;;;;;19.36;94.46;100152.13;6274175;28;20496;-74
2023/09/24 13:57:05;;;;;;;1.42;0.70;;;;;;;19.10;95.52;100148.34;6273052;28;20041;-74
2023/09/24 14:00:06;;;;;;;0.80;0.60;;;;;;;19.28;94.08;100152.88;6274068;28;20136;-74
2023/09/24 14:03:10;;;;;;;;;;;;;;;19.06;94.34;100154.91;6273479;28;20053;-74
2023/09/24 14:06:11;;;;;;;0.98;0.60;;;;;;;19.20;94.91;100148.31;6274045;28;19928;-73
2023/09/24 14:12:31;;;;;;;1.60;0.88;;;;;;;19.20;95.05;100182.69;6273741;28;20496;-73